sensor_id;sensor_type;location;lat;lon;timestamp;temperature;humidity
40516;DHT22;26216;53.724;9.898;2023-07-24T00:01:32;19.90;99.90
40516;DHT22;26216;53.724;9.898;2023-07-24T00:03:57;19.90;99.90
40516;DHT22;26216;53.724;9.898;2023-07-24T00:06:24;19.90;99.90
40516;DHT22;26216;53.724;9.898;2023-07-24T00:08:50;19.90;99.90
40516;DHT22;26216;53.724;9.898;2023-07-24T00:11:16;19.90;99.90
40516;DHT22;26216;53.724;9.898;2023-07-24T00:13:41;19.90;99.90
40516;DHT22;26216;53.724;9.898;2023-07-24T00:16:08;19.90;99.90
40516;DHT22;26216;53.724;9.898;2023-07-24T00:18:34;19.90;99.90
40516;DHT22;26216;53.724;9.898;2023-07-24T00:21:00;19.90;99.90
40516;DHT22;26216;53.724;9.898;2023-07-24T00:23:26;19.90;99.90
40516;DHT22;26216;53.724;9.898;2023-07-24T00:25:51;19.90;99.90
40516;DHT22;26216;53.724;9.898;2023-07-24T00:28:18;19.90;99.90
40516;DHT22;26216;53.724;9.898;2023-07-24T00:30:44;19.90;99.90
40516;DHT22;26216;53.724;9.898;2023-07-24T00:33:10;19.90;99.90
40516;DHT22;26216;53.724;9.898;2023-07-24T00:35:35;19.90;99.90
40516;DHT22;26216;53.724;9.898;2023-07-24T00:38:01;19.90;99.90
40516;DHT22;26216;53.724;9.898;2023-07-24T00:40:27;19.90;99.90
40516;DHT22;26216;53.724;9.898;2023-07-24T00:42:53;19.90;99.90
40516;DHT22;26216;53.724;9.898;2023-07-24T00:45:19;19.80;99.90
40516;DHT22;26216;53.724;9.898;2023-07-24T00:47:46;19.80;99.90
40516;DHT22;26216;53.724;9.898;2023-07-24T00:50:12;19.80;99.90
40516;DHT22;26216;53.724;9.898;2023-07-24T00:52:39;19.80;99.90
40516;DHT22;26216;53.724;9.898;2023-07-24T00:55:06;19.80;99.90
40516;DHT22;26216;53.724;9.898;2023-07-24T00:57:32;19.80;99.90
40516;DHT22;26216;53.724;9.898;2023-07-24T00:59:59;19.90;99.90
40516;DHT22;26216;53.724;9.898;2023-07-24T01:02:25;19.80;99.90
40516;DHT22;26216;53.724;9.898;2023-07-24T01:04:51;19.80;99.90
40516;DHT22;26216;53.724;9.898;2023-07-24T01:07:17;19.80;99.90
40516;DHT22;26216;53.724;9.898;2023-07-24T01:09:43;19.80;99.90
40516;DHT22;26216;53.724;9.898;2023-07-24T01:12:36;19.90;99.90
40516;DHT22;26216;53.724;9.898;2023-07-24T01:15:09;19.90;99.90
40516;DHT22;26216;53.724;9.898;2023-07-24T01:17:53;19.90;99.90
40516;DHT22;26216;53.724;9.898;2023-07-24T01:20:21;19.90;99.90
40516;DHT22;26216;53.724;9.898;2023-07-24T01:25:33;19.90;99.90
40516;DHT22;26216;53.724;9.898;2023-07-24T01:28:07;19.90;99.90
40516;DHT22;26216;53.724;9.898;2023-07-24T01:30:33;19.90;99.90
40516;DHT22;26216;53.724;9.898;2023-07-24T01:32:59;19.90;99.90
40516;DHT22;26216;53.724;9.898;2023-07-24T01:35:26;19.90;99.90
40516;DHT22;26216;53.724;9.898;2023-07-24T01:37:53;19.90;99.90
40516;DHT22;26216;53.724;9.898;2023-07-24T01:40:21;19.90;99.90
40516;DHT22;26216;53.724;9.898;2023-07-24T01:42:47;19.90;99.90
40516;DHT22;26216;53.724;9.898;2023-07-24T01:45:15;19.90;99.90
40516;DHT22;26216;53.724;9.898;2023-07-24T01:47:41;19.90;99.90
40516;DHT22;26216;53.724;9.898;2023-07-24T01:50:07;19.90;99.90
40516;DHT22;26216;53.724;9.898;2023-07-24T01:52:33;19.90;99.90
40516;DHT22;26216;53.724;9.898;2023-07-24T01:54:59;19.90;99.90
40516;DHT22;26216;53.724;9.898;2023-07-24T01:57:25;19.90;99.90
40516;DHT22;26216;53.724;9.898;2023-07-24T01:59:50;20.00;99.90
40516;DHT22;26216;53.724;9.898;2023-07-24T02:02:16;19.90;99.90
40516;DHT22;26216;53.724;9.898;2023-07-24T02:04:42;19.90;99.90
40516;DHT22;26216;53.724;9.898;2023-07-24T02:07:08;19.90;99.90
40516;DHT22;26216;53.724;9.898;2023-07-24T02:09:34;19.90;99.90
40516;DHT22;26216;53.724;9.898;2023-07-24T02:12:00;19.90;99.90
40516;DHT22;26216;53.724;9.898;2023-07-24T02:14:27;19.90;99.90
40516;DHT22;26216;53.724;9.898;2023-07-24T02:16:53;19.90;99.90
40516;DHT22;26216;53.724;9.898;2023-07-24T02:19:19;19.80;99.90
40516;DHT22;26216;53.724;9.898;2023-07-24T02:21:45;19.80;99.90
40516;DHT22;26216;53.724;9.898;2023-07-24T02:24:11;19.80;99.90
40516;DHT22;26216;53.724;9.898;2023-07-24T02:26:36;19.80;99.90
40516;DHT22;26216;53.724;9.898;2023-07-24T02:29:02;19.80;99.90
40516;DHT22;26216;53.724;9.898;2023-07-24T02:31:28;19.80;99.90
40516;DHT22;26216;53.724;9.898;2023-07-24T02:33:54;19.80;99.90
40516;DHT22;26216;53.724;9.898;2023-07-24T02:36:20;19.70;99.90
40516;DHT22;26216;53.724;9.898;2023-07-24T02:38:45;19.70;99.90
40516;DHT22;26216;53.724;9.898;2023-07-24T02:41:11;19.70;99.90
40516;DHT22;26216;53.724;9.898;2023-07-24T02:43:37;19.70;99.90
40516;DHT22;26216;53.724;9.898;2023-07-24T02:46:03;19.70;99.90
40516;DHT22;26216;53.724;9.898;2023-07-24T02:48:30;19.70;99.90
40516;DHT22;26216;53.724;9.898;2023-07-24T02:50:56;19.70;99.90
40516;DHT22;26216;53.724;9.898;2023-07-24T02:53:22;19.70;99.90
40516;DHT22;26216;53.724;9.898;2023-07-24T02:55:47;19.70;99.90
40516;DHT22;26216;53.724;9.898;2023-07-24T02:58:14;19.70;99.90
40516;DHT22;26216;53.724;9.898;2023-07-24T03:00:40;19.70;99.90
40516;DHT22;26216;53.724;9.898;2023-07-24T03:03:06;19.70;99.90
40516;DHT22;26216;53.724;9.898;2023-07-24T03:05:34;19.60;99.90
40516;DHT22;26216;53.724;9.898;2023-07-24T03:08:00;19.70;99.90
40516;DHT22;26216;53.724;9.898;2023-07-24T03:10:26;19.70;99.90
40516;DHT22;26216;53.724;9.898;2023-07-24T03:12:52;19.70;99.90
40516;DHT22;26216;53.724;9.898;2023-07-24T03:15:18;19.60;99.90
40516;DHT22;26216;53.724;9.898;2023-07-24T03:17:44;19.60;99.90
40516;DHT22;26216;53.724;9.898;2023-07-24T03:20:15;19.70;99.90
40516;DHT22;26216;53.724;9.898;2023-07-24T03:22:41;19.70;99.90
40516;DHT22;26216;53.724;9.898;2023-07-24T03:25:08;19.70;99.90
40516;DHT22;26216;53.724;9.898;2023-07-24T03:27:34;19.70;99.90
40516;DHT22;26216;53.724;9.898;2023-07-24T03:29:59;19.70;99.90
40516;DHT22;26216;53.724;9.898;2023-07-24T03:32:25;19.70;99.90
40516;DHT22;26216;53.724;9.898;2023-07-24T03:34:51;19.70;99.90
40516;DHT22;26216;53.724;9.898;2023-07-24T03:37:17;19.70;99.90
40516;DHT22;26216;53.724;9.898;2023-07-24T03:39:43;19.70;99.90
40516;DHT22;26216;53.724;9.898;2023-07-24T03:42:12;19.70;99.90
40516;DHT22;26216;53.724;9.898;2023-07-24T03:44:41;19.70;99.90
40516;DHT22;26216;53.724;9.898;2023-07-24T03:47:07;19.70;99.90
40516;DHT22;26216;53.724;9.898;2023-07-24T03:49:33;19.70;99.90
40516;DHT22;26216;53.724;9.898;2023-07-24T03:51:59;19.80;99.90
40516;DHT22;26216;53.724;9.898;2023-07-24T03:54:25;19.80;99.90
40516;DHT22;26216;53.724;9.898;2023-07-24T03:56:51;19.80;99.90
40516;DHT22;26216;53.724;9.898;2023-07-24T03:59:17;19.80;99.90
40516;DHT22;26216;53.724;9.898;2023-07-24T04:01:42;19.80;99.90
40516;DHT22;26216;53.724;9.898;2023-07-24T04:04:09;19.90;99.90
40516;DHT22;26216;53.724;9.898;2023-07-24T04:06:34;19.90;99.90
40516;DHT22;26216;53.724;9.898;2023-07-24T04:09:00;19.90;99.90
40516;DHT22;26216;53.724;9.898;2023-07-24T04:11:26;19.90;99.90
40516;DHT22;26216;53.724;9.898;2023-07-24T04:13:52;20.00;99.90
40516;DHT22;26216;53.724;9.898;2023-07-24T04:16:18;20.00;99.90
40516;DHT22;26216;53.724;9.898;2023-07-24T04:18:43;20.00;99.90
40516;DHT22;26216;53.724;9.898;2023-07-24T04:21:09;20.00;99.90
40516;DHT22;26216;53.724;9.898;2023-07-24T04:23:35;20.10;99.90
40516;DHT22;26216;53.724;9.898;2023-07-24T04:26:01;20.10;99.90
40516;DHT22;26216;53.724;9.898;2023-07-24T04:28:27;20.10;99.90
40516;DHT22;26216;53.724;9.898;2023-07-24T04:30:52;20.10;99.90
40516;DHT22;26216;53.724;9.898;2023-07-24T04:33:18;20.10;99.90
40516;DHT22;26216;53.724;9.898;2023-07-24T04:35:48;20.20;99.90
40516;DHT22;26216;53.724;9.898;2023-07-24T04:38:14;20.20;99.90
40516;DHT22;26216;53.724;9.898;2023-07-24T04:40:43;20.20;99.90
40516;DHT22;26216;53.724;9.898;2023-07-24T04:43:08;20.20;99.90
40516;DHT22;26216;53.724;9.898;2023-07-24T04:45:34;20.20;99.90
40516;DHT22;26216;53.724;9.898;2023-07-24T04:48:00;20.30;99.90
40516;DHT22;26216;53.724;9.898;2023-07-24T04:50:26;20.20;99.90
40516;DHT22;26216;53.724;9.898;2023-07-24T04:52:51;20.30;99.90
40516;DHT22;26216;53.724;9.898;2023-07-24T04:55:17;20.30;99.90
40516;DHT22;26216;53.724;9.898;2023-07-24T04:57:43;20.30;99.90
40516;DHT22;26216;53.724;9.898;2023-07-24T05:00:09;20.30;99.90
40516;DHT22;26216;53.724;9.898;2023-07-24T05:02:35;20.30;99.90
40516;DHT22;26216;53.724;9.898;2023-07-24T05:05:01;20.30;99.90
40516;DHT22;26216;53.724;9.898;2023-07-24T05:07:27;20.40;99.90
40516;DHT22;26216;53.724;9.898;2023-07-24T05:09:52;20.40;99.90
40516;DHT22;26216;53.724;9.898;2023-07-24T05:12:18;20.40;99.90
40516;DHT22;26216;53.724;9.898;2023-07-24T05:14:44;20.40;99.90
40516;DHT22;26216;53.724;9.898;2023-07-24T05:17:10;20.50;99.90
40516;DHT22;26216;53.724;9.898;2023-07-24T05:19:36;20.60;99.90
40516;DHT22;26216;53.724;9.898;2023-07-24T05:22:02;20.60;99.90
40516;DHT22;26216;53.724;9.898;2023-07-24T05:24:28;20.60;99.90
40516;DHT22;26216;53.724;9.898;2023-07-24T05:26:53;20.70;99.90
40516;DHT22;26216;53.724;9.898;2023-07-24T05:29:19;20.70;99.90
40516;DHT22;26216;53.724;9.898;2023-07-24T05:31:45;20.80;99.90
40516;DHT22;26216;53.724;9.898;2023-07-24T05:34:11;20.90;99.90
40516;DHT22;26216;53.724;9.898;2023-07-24T05:36:37;20.90;99.90
40516;DHT22;26216;53.724;9.898;2023-07-24T05:39:02;21.10;99.90
40516;DHT22;26216;53.724;9.898;2023-07-24T05:41:28;21.10;99.90
40516;DHT22;26216;53.724;9.898;2023-07-24T05:43:54;21.20;99.90
40516;DHT22;26216;53.724;9.898;2023-07-24T05:46:21;21.30;99.90
40516;DHT22;26216;53.724;9.898;2023-07-24T05:48:48;21.40;99.90
40516;DHT22;26216;53.724;9.898;2023-07-24T05:51:13;21.40;99.90
40516;DHT22;26216;53.724;9.898;2023-07-24T05:53:39;21.50;99.90
40516;DHT22;26216;53.724;9.898;2023-07-24T05:56:05;21.50;99.90
40516;DHT22;26216;53.724;9.898;2023-07-24T05:58:31;21.50;99.90
40516;DHT22;26216;53.724;9.898;2023-07-24T06:00:57;21.50;99.90
40516;DHT22;26216;53.724;9.898;2023-07-24T06:03:23;21.60;99.90
40516;DHT22;26216;53.724;9.898;2023-07-24T06:05:53;21.60;99.90
40516;DHT22;26216;53.724;9.898;2023-07-24T06:08:19;21.60;99.90
40516;DHT22;26216;53.724;9.898;2023-07-24T06:10:50;21.60;99.90
40516;DHT22;26216;53.724;9.898;2023-07-24T06:13:19;21.60;99.90
40516;DHT22;26216;53.724;9.898;2023-07-24T06:15:47;21.60;99.90
40516;DHT22;26216;53.724;9.898;2023-07-24T06:18:13;21.60;99.90
40516;DHT22;26216;53.724;9.898;2023-07-24T06:20:39;21.60;99.90
40516;DHT22;26216;53.724;9.898;2023-07-24T06:23:05;21.60;99.90
40516;DHT22;26216;53.724;9.898;2023-07-24T06:25:31;21.60;99.90
40516;DHT22;26216;53.724;9.898;2023-07-24T06:27:57;21.70;99.90
40516;DHT22;26216;53.724;9.898;2023-07-24T06:30:23;21.70;99.90
40516;DHT22;26216;53.724;9.898;2023-07-24T06:32:49;21.70;99.90
40516;DHT22;26216;53.724;9.898;2023-07-24T06:35:15;21.80;99.90
40516;DHT22;26216;53.724;9.898;2023-07-24T06:37:41;21.80;99.90
40516;DHT22;26216;53.724;9.898;2023-07-24T06:40:07;21.80;99.90
40516;DHT22;26216;53.724;9.898;2023-07-24T06:42:34;21.80;99.90
40516;DHT22;26216;53.724;9.898;2023-07-24T06:45:00;21.90;99.90
40516;DHT22;26216;53.724;9.898;2023-07-24T06:47:26;21.90;99.90
40516;DHT22;26216;53.724;9.898;2023-07-24T06:49:51;21.90;99.90
40516;DHT22;26216;53.724;9.898;2023-07-24T06:52:17;22.00;99.90
40516;DHT22;26216;53.724;9.898;2023-07-24T06:54:43;22.00;99.90
40516;DHT22;26216;53.724;9.898;2023-07-24T06:57:09;22.00;99.90
40516;DHT22;26216;53.724;9.898;2023-07-24T06:59:35;22.00;99.90
40516;DHT22;26216;53.724;9.898;2023-07-24T07:02:01;22.00;99.90
40516;DHT22;26216;53.724;9.898;2023-07-24T07:04:27;22.00;99.90
40516;DHT22;26216;53.724;9.898;2023-07-24T07:06:52;22.00;99.90
40516;DHT22;26216;53.724;9.898;2023-07-24T07:09:18;22.00;99.90
40516;DHT22;26216;53.724;9.898;2023-07-24T07:11:44;22.10;99.90
40516;DHT22;26216;53.724;9.898;2023-07-24T07:14:10;22.10;99.90
40516;DHT22;26216;53.724;9.898;2023-07-24T07:16:36;22.10;99.90
40516;DHT22;26216;53.724;9.898;2023-07-24T07:19:02;22.10;99.90
40516;DHT22;26216;53.724;9.898;2023-07-24T07:21:28;22.10;99.90
40516;DHT22;26216;53.724;9.898;2023-07-24T07:23:54;22.10;99.90
40516;DHT22;26216;53.724;9.898;2023-07-24T07:26:20;22.10;99.90
40516;DHT22;26216;53.724;9.898;2023-07-24T07:28:47;22.10;99.90
40516;DHT22;26216;53.724;9.898;2023-07-24T07:31:13;22.10;99.90
40516;DHT22;26216;53.724;9.898;2023-07-24T07:33:39;22.10;99.90
40516;DHT22;26216;53.724;9.898;2023-07-24T07:36:05;22.20;99.90
40516;DHT22;26216;53.724;9.898;2023-07-24T07:38:32;22.20;99.90
40516;DHT22;26216;53.724;9.898;2023-07-24T07:40:57;22.30;99.90
40516;DHT22;26216;53.724;9.898;2023-07-24T07:43:23;22.30;99.90
40516;DHT22;26216;53.724;9.898;2023-07-24T07:45:49;22.40;99.90
40516;DHT22;26216;53.724;9.898;2023-07-24T07:48:15;22.40;99.90
40516;DHT22;26216;53.724;9.898;2023-07-24T07:50:41;22.50;99.90
40516;DHT22;26216;53.724;9.898;2023-07-24T07:53:07;22.50;99.90
40516;DHT22;26216;53.724;9.898;2023-07-24T07:55:33;22.50;99.90
40516;DHT22;26216;53.724;9.898;2023-07-24T07:57:59;22.60;99.90
40516;DHT22;26216;53.724;9.898;2023-07-24T08:00:24;22.70;99.90
40516;DHT22;26216;53.724;9.898;2023-07-24T08:02:50;22.80;99.90
40516;DHT22;26216;53.724;9.898;2023-07-24T08:05:16;22.80;99.90
40516;DHT22;26216;53.724;9.898;2023-07-24T08:07:42;22.90;99.90
40516;DHT22;26216;53.724;9.898;2023-07-24T08:10:08;23.00;99.90
40516;DHT22;26216;53.724;9.898;2023-07-24T08:12:34;23.00;99.90
40516;DHT22;26216;53.724;9.898;2023-07-24T08:15:00;23.10;99.90
40516;DHT22;26216;53.724;9.898;2023-07-24T08:17:26;23.10;99.90
40516;DHT22;26216;53.724;9.898;2023-07-24T08:19:52;23.20;99.90
40516;DHT22;26216;53.724;9.898;2023-07-24T08:22:17;23.20;99.90
40516;DHT22;26216;53.724;9.898;2023-07-24T08:24:45;23.20;99.70
40516;DHT22;26216;53.724;9.898;2023-07-24T08:27:12;23.20;99.10
40516;DHT22;26216;53.724;9.898;2023-07-24T08:29:38;23.20;99.40
40516;DHT22;26216;53.724;9.898;2023-07-24T08:32:04;23.20;99.00
40516;DHT22;26216;53.724;9.898;2023-07-24T08:34:30;23.10;99.20
40516;DHT22;26216;53.724;9.898;2023-07-24T08:36:56;23.20;99.40
40516;DHT22;26216;53.724;9.898;2023-07-24T08:39:22;23.10;99.00
40516;DHT22;26216;53.724;9.898;2023-07-24T08:41:48;23.20;99.50
40516;DHT22;26216;53.724;9.898;2023-07-24T08:44:14;23.20;99.60
40516;DHT22;26216;53.724;9.898;2023-07-24T08:46:41;23.30;99.80
40516;DHT22;26216;53.724;9.898;2023-07-24T08:49:14;23.30;99.90
40516;DHT22;26216;53.724;9.898;2023-07-24T08:51:44;23.40;99.50
40516;DHT22;26216;53.724;9.898;2023-07-24T08:54:11;23.40;99.60
40516;DHT22;26216;53.724;9.898;2023-07-24T08:56:38;23.50;99.40
40516;DHT22;26216;53.724;9.898;2023-07-24T08:59:05;23.60;99.60
40516;DHT22;26216;53.724;9.898;2023-07-24T09:01:32;23.60;99.90
40516;DHT22;26216;53.724;9.898;2023-07-24T09:03:58;23.70;99.50
40516;DHT22;26216;53.724;9.898;2023-07-24T09:06:25;23.70;99.90
40516;DHT22;26216;53.724;9.898;2023-07-24T09:08:53;23.90;99.40
40516;DHT22;26216;53.724;9.898;2023-07-24T09:11:20;24.00;99.50
40516;DHT22;26216;53.724;9.898;2023-07-24T09:13:46;24.10;98.80
40516;DHT22;26216;53.724;9.898;2023-07-24T09:16:23;24.10;98.20
40516;DHT22;26216;53.724;9.898;2023-07-24T09:18:49;24.20;98.60
40516;DHT22;26216;53.724;9.898;2023-07-24T09:21:28;24.30;98.70
40516;DHT22;26216;53.724;9.898;2023-07-24T09:23:54;24.30;98.20
40516;DHT22;26216;53.724;9.898;2023-07-24T09:26:20;24.40;98.40
40516;DHT22;26216;53.724;9.898;2023-07-24T09:28:53;24.40;97.70
40516;DHT22;26216;53.724;9.898;2023-07-24T09:31:19;24.50;97.90
40516;DHT22;26216;53.724;9.898;2023-07-24T09:33:45;24.50;97.90
40516;DHT22;26216;53.724;9.898;2023-07-24T09:36:11;24.50;96.40
40516;DHT22;26216;53.724;9.898;2023-07-24T09:38:39;24.50;96.40
40516;DHT22;26216;53.724;9.898;2023-07-24T09:41:05;24.50;96.20
40516;DHT22;26216;53.724;9.898;2023-07-24T09:43:32;24.50;96.60
40516;DHT22;26216;53.724;9.898;2023-07-24T09:45:58;24.50;96.00
40516;DHT22;26216;53.724;9.898;2023-07-24T09:48:26;24.50;96.20
40516;DHT22;26216;53.724;9.898;2023-07-24T09:50:56;24.50;96.60
40516;DHT22;26216;53.724;9.898;2023-07-24T09:55:58;24.50;96.10
40516;DHT22;26216;53.724;9.898;2023-07-24T09:58:25;24.50;95.50
40516;DHT22;26216;53.724;9.898;2023-07-24T10:00:52;24.50;95.50
40516;DHT22;26216;53.724;9.898;2023-07-24T10:03:19;24.60;96.00
40516;DHT22;26216;53.724;9.898;2023-07-24T10:05:47;24.60;96.00
40516;DHT22;26216;53.724;9.898;2023-07-24T10:08:16;24.60;96.30
40516;DHT22;26216;53.724;9.898;2023-07-24T10:10:43;24.60;96.40
40516;DHT22;26216;53.724;9.898;2023-07-24T10:13:10;24.70;97.00
40516;DHT22;26216;53.724;9.898;2023-07-24T10:15:38;24.80;96.90
40516;DHT22;26216;53.724;9.898;2023-07-24T10:18:06;24.90;96.60
40516;DHT22;26216;53.724;9.898;2023-07-24T10:20:37;24.90;96.40
40516;DHT22;26216;53.724;9.898;2023-07-24T10:23:06;25.00;95.70
40516;DHT22;26216;53.724;9.898;2023-07-24T10:25:34;25.10;96.40
40516;DHT22;26216;53.724;9.898;2023-07-24T10:28:08;25.20;95.40
40516;DHT22;26216;53.724;9.898;2023-07-24T10:30:39;25.30;95.80
40516;DHT22;26216;53.724;9.898;2023-07-24T10:33:13;25.40;96.10
40516;DHT22;26216;53.724;9.898;2023-07-24T10:35:45;25.50;95.50
40516;DHT22;26216;53.724;9.898;2023-07-24T10:38:13;25.60;94.20
40516;DHT22;26216;53.724;9.898;2023-07-24T10:40:46;25.70;94.30
40516;DHT22;26216;53.724;9.898;2023-07-24T10:43:19;25.80;94.10
40516;DHT22;26216;53.724;9.898;2023-07-24T10:45:51;25.80;93.90
40516;DHT22;26216;53.724;9.898;2023-07-24T10:48:18;25.90;94.80
40516;DHT22;26216;53.724;9.898;2023-07-24T10:50:49;25.90;94.80
40516;DHT22;26216;53.724;9.898;2023-07-24T10:53:18;26.00;94.60
40516;DHT22;26216;53.724;9.898;2023-07-24T10:55:45;26.00;94.40
40516;DHT22;26216;53.724;9.898;2023-07-24T10:58:12;26.10;94.90
40516;DHT22;26216;53.724;9.898;2023-07-24T11:00:42;26.10;93.60
40516;DHT22;26216;53.724;9.898;2023-07-24T11:03:10;26.20;94.80
40516;DHT22;26216;53.724;9.898;2023-07-24T11:05:40;26.30;94.90
40516;DHT22;26216;53.724;9.898;2023-07-24T11:08:14;26.40;93.60
40516;DHT22;26216;53.724;9.898;2023-07-24T11:10:50;26.40;93.40
40516;DHT22;26216;53.724;9.898;2023-07-24T11:13:19;26.50;94.00
40516;DHT22;26216;53.724;9.898;2023-07-24T11:15:45;26.50;93.50
40516;DHT22;26216;53.724;9.898;2023-07-24T11:18:11;26.60;94.20
40516;DHT22;26216;53.724;9.898;2023-07-24T11:20:44;26.60;93.70
40516;DHT22;26216;53.724;9.898;2023-07-24T11:23:11;26.70;91.90
40516;DHT22;26216;53.724;9.898;2023-07-24T11:25:37;26.80;93.20
40516;DHT22;26216;53.724;9.898;2023-07-24T11:28:07;26.80;91.90
40516;DHT22;26216;53.724;9.898;2023-07-24T11:30:34;26.90;92.80
40516;DHT22;26216;53.724;9.898;2023-07-24T11:33:02;26.90;92.80
40516;DHT22;26216;53.724;9.898;2023-07-24T11:35:29;26.90;92.60
40516;DHT22;26216;53.724;9.898;2023-07-24T11:37:55;27.00;92.80
40516;DHT22;26216;53.724;9.898;2023-07-24T11:40:53;27.10;93.10
40516;DHT22;26216;53.724;9.898;2023-07-24T11:43:18;27.20;92.20
40516;DHT22;26216;53.724;9.898;2023-07-24T11:45:45;27.30;92.80
40516;DHT22;26216;53.724;9.898;2023-07-24T11:48:12;27.30;90.70
40516;DHT22;26216;53.724;9.898;2023-07-24T11:50:49;27.40;91.30
40516;DHT22;26216;53.724;9.898;2023-07-24T11:53:26;27.50;91.50
40516;DHT22;26216;53.724;9.898;2023-07-24T11:55:53;27.50;91.00
40516;DHT22;26216;53.724;9.898;2023-07-24T11:58:20;27.50;91.40
40516;DHT22;26216;53.724;9.898;2023-07-24T12:00:47;27.60;91.30
40516;DHT22;26216;53.724;9.898;2023-07-24T12:03:20;27.60;90.40
40516;DHT22;26216;53.724;9.898;2023-07-24T12:05:47;27.70;91.20
40516;DHT22;26216;53.724;9.898;2023-07-24T12:08:13;27.70;91.50
40516;DHT22;26216;53.724;9.898;2023-07-24T12:10:43;27.80;90.80
40516;DHT22;26216;53.724;9.898;2023-07-24T12:13:09;27.80;91.00
40516;DHT22;26216;53.724;9.898;2023-07-24T12:15:35;27.90;90.30
40516;DHT22;26216;53.724;9.898;2023-07-24T12:18:02;28.00;90.00
40516;DHT22;26216;53.724;9.898;2023-07-24T12:20:29;28.00;90.50
40516;DHT22;26216;53.724;9.898;2023-07-24T12:22:55;27.90;89.40
40516;DHT22;26216;53.724;9.898;2023-07-24T12:25:21;28.00;90.50
40516;DHT22;26216;53.724;9.898;2023-07-24T12:27:47;28.00;90.00
40516;DHT22;26216;53.724;9.898;2023-07-24T12:30:13;28.10;90.20
40516;DHT22;26216;53.724;9.898;2023-07-24T12:32:39;28.10;90.40
40516;DHT22;26216;53.724;9.898;2023-07-24T12:35:07;28.20;90.70
40516;DHT22;26216;53.724;9.898;2023-07-24T12:37:33;28.30;87.40
40516;DHT22;26216;53.724;9.898;2023-07-24T12:39:59;28.40;89.60
40516;DHT22;26216;53.724;9.898;2023-07-24T12:42:25;28.40;89.00
40516;DHT22;26216;53.724;9.898;2023-07-24T12:44:52;28.50;88.60
40516;DHT22;26216;53.724;9.898;2023-07-24T12:47:18;28.60;86.50
40516;DHT22;26216;53.724;9.898;2023-07-24T12:49:44;28.60;85.80
40516;DHT22;26216;53.724;9.898;2023-07-24T12:52:10;28.60;84.30
40516;DHT22;26216;53.724;9.898;2023-07-24T12:54:36;28.60;85.60
40516;DHT22;26216;53.724;9.898;2023-07-24T12:57:02;28.60;85.30
40516;DHT22;26216;53.724;9.898;2023-07-24T12:59:29;28.60;85.90
40516;DHT22;26216;53.724;9.898;2023-07-24T13:01:55;28.60;86.00
40516;DHT22;26216;53.724;9.898;2023-07-24T13:04:21;28.60;85.60
40516;DHT22;26216;53.724;9.898;2023-07-24T13:06:47;28.70;86.20
40516;DHT22;26216;53.724;9.898;2023-07-24T13:09:13;28.70;85.10
40516;DHT22;26216;53.724;9.898;2023-07-24T13:11:39;28.80;85.70
40516;DHT22;26216;53.724;9.898;2023-07-24T13:14:05;28.80;86.50
40516;DHT22;26216;53.724;9.898;2023-07-24T13:16:31;28.90;84.80
40516;DHT22;26216;53.724;9.898;2023-07-24T13:18:57;28.90;85.70
40516;DHT22;26216;53.724;9.898;2023-07-24T13:21:23;28.90;86.10
40516;DHT22;26216;53.724;9.898;2023-07-24T13:23:49;28.90;85.00
40516;DHT22;26216;53.724;9.898;2023-07-24T13:26:15;28.90;83.00
40516;DHT22;26216;53.724;9.898;2023-07-24T13:28:41;28.90;84.10
40516;DHT22;26216;53.724;9.898;2023-07-24T13:31:15;28.90;84.00
40516;DHT22;26216;53.724;9.898;2023-07-24T13:33:42;28.90;84.30
40516;DHT22;26216;53.724;9.898;2023-07-24T13:36:08;28.90;85.70
40516;DHT22;26216;53.724;9.898;2023-07-24T13:38:34;28.90;85.40
40516;DHT22;26216;53.724;9.898;2023-07-24T13:41:00;29.00;84.70
40516;DHT22;26216;53.724;9.898;2023-07-24T13:43:28;29.00;84.80
40516;DHT22;26216;53.724;9.898;2023-07-24T13:45:53;29.10;85.00
40516;DHT22;26216;53.724;9.898;2023-07-24T13:48:20;29.10;85.50
40516;DHT22;26216;53.724;9.898;2023-07-24T13:50:46;29.20;84.70
40516;DHT22;26216;53.724;9.898;2023-07-24T13:53:12;29.30;85.80
40516;DHT22;26216;53.724;9.898;2023-07-24T13:55:38;29.30;84.30
40516;DHT22;26216;53.724;9.898;2023-07-24T13:58:04;29.40;83.50
40516;DHT22;26216;53.724;9.898;2023-07-24T14:00:29;29.40;79.90
40516;DHT22;26216;53.724;9.898;2023-07-24T14:02:56;29.30;78.80
40516;DHT22;26216;53.724;9.898;2023-07-24T14:05:24;29.20;80.10
40516;DHT22;26216;53.724;9.898;2023-07-24T14:07:50;29.20;79.00
40516;DHT22;26216;53.724;9.898;2023-07-24T14:10:15;29.10;80.60
40516;DHT22;26216;53.724;9.898;2023-07-24T14:12:41;29.00;80.80
40516;DHT22;26216;53.724;9.898;2023-07-24T14:15:08;28.90;78.70
40516;DHT22;26216;53.724;9.898;2023-07-24T14:17:34;28.80;80.10
40516;DHT22;26216;53.724;9.898;2023-07-24T14:20:03;28.80;78.90
40516;DHT22;26216;53.724;9.898;2023-07-24T14:22:29;28.70;78.20
40516;DHT22;26216;53.724;9.898;2023-07-24T14:24:54;28.50;78.30
40516;DHT22;26216;53.724;9.898;2023-07-24T14:27:20;28.40;80.00
40516;DHT22;26216;53.724;9.898;2023-07-24T14:29:46;28.30;79.00
40516;DHT22;26216;53.724;9.898;2023-07-24T14:32:12;28.00;79.10
40516;DHT22;26216;53.724;9.898;2023-07-24T14:34:38;27.90;79.50
40516;DHT22;26216;53.724;9.898;2023-07-24T14:37:04;27.70;80.60
40516;DHT22;26216;53.724;9.898;2023-07-24T14:39:30;27.50;81.80
40516;DHT22;26216;53.724;9.898;2023-07-24T14:41:56;27.30;81.80
40516;DHT22;26216;53.724;9.898;2023-07-24T14:44:22;27.20;82.40
40516;DHT22;26216;53.724;9.898;2023-07-24T14:46:48;27.10;82.70
40516;DHT22;26216;53.724;9.898;2023-07-24T14:49:14;27.00;83.30
40516;DHT22;26216;53.724;9.898;2023-07-24T14:51:40;26.90;83.70
40516;DHT22;26216;53.724;9.898;2023-07-24T14:54:06;26.80;84.40
40516;DHT22;26216;53.724;9.898;2023-07-24T14:56:32;26.60;84.60
40516;DHT22;26216;53.724;9.898;2023-07-24T14:58:58;26.50;85.00
40516;DHT22;26216;53.724;9.898;2023-07-24T15:01:24;26.40;85.10
40516;DHT22;26216;53.724;9.898;2023-07-24T15:03:53;26.30;85.40
40516;DHT22;26216;53.724;9.898;2023-07-24T15:06:19;26.20;85.40
40516;DHT22;26216;53.724;9.898;2023-07-24T15:08:45;26.10;85.60
40516;DHT22;26216;53.724;9.898;2023-07-24T15:11:11;25.90;85.70
40516;DHT22;26216;53.724;9.898;2023-07-24T15:13:39;25.80;86.20
40516;DHT22;26216;53.724;9.898;2023-07-24T15:16:05;25.60;86.20
40516;DHT22;26216;53.724;9.898;2023-07-24T15:18:31;25.50;86.50
40516;DHT22;26216;53.724;9.898;2023-07-24T15:20:57;25.40;86.60
40516;DHT22;26216;53.724;9.898;2023-07-24T15:23:23;25.30;88.40
40516;DHT22;26216;53.724;9.898;2023-07-24T15:30:04;24.80;91.40
40516;DHT22;26216;53.724;9.898;2023-07-24T15:32:56;24.30;91.10
40516;DHT22;26216;53.724;9.898;2023-07-24T15:39:06;23.30;91.20
40516;DHT22;26216;53.724;9.898;2023-07-24T15:41:32;22.70;91.20